createdAt,value
2017-12-30T00:01:35.938Z,83.67
2017-12-30T00:04:04.208Z,83.55
2017-12-30T00:06:32.463Z,84.00
2017-12-30T00:09:00.778Z,83.53
2017-12-30T00:11:29.079Z,83.76
2017-12-30T00:13:58.160Z,84.35
2017-12-30T00:16:26.452Z,84.43
2017-12-30T00:18:54.741Z,85.11
2017-12-30T00:21:23.036Z,85.69
2017-12-30T00:23:51.312Z,85.64
2017-12-30T00:26:19.576Z,85.37
2017-12-30T00:28:48.657Z,84.57
2017-12-30T00:31:16.957Z,83.82
2017-12-30T00:33:45.279Z,83.38
2017-12-30T00:36:13.574Z,83.11
2017-12-30T00:38:41.882Z,83.03
2017-12-30T00:41:10.162Z,82.41
2017-12-30T00:43:38.458Z,81.24
2017-12-30T00:46:06.687Z,81.55
2017-12-30T00:48:34.943Z,81.31
2017-12-30T00:51:03.233Z,80.89
2017-12-30T00:53:32.264Z,80.96
2017-12-30T00:56:00.543Z,80.99
2017-12-30T00:58:28.804Z,80.97
2017-12-30T01:00:57.050Z,80.27
2017-12-30T01:03:26.137Z,80.73
2017-12-30T01:05:54.374Z,80.83
2017-12-30T01:08:22.677Z,80.57
2017-12-30T01:10:50.924Z,80.21
2017-12-30T01:13:19.951Z,80.74
2017-12-30T01:15:48.204Z,80.60
2017-12-30T01:18:16.459Z,80.92
2017-12-30T01:20:44.717Z,81.50
2017-12-30T01:23:12.984Z,81.33
2017-12-30T01:25:42.005Z,81.47
2017-12-30T01:28:11.056Z,81.61
2017-12-30T01:30:39.320Z,81.75
2017-12-30T01:33:07.646Z,80.94
2017-12-30T01:35:35.930Z,80.89
2017-12-30T01:38:04.251Z,81.07
2017-12-30T01:40:32.528Z,81.05
2017-12-30T01:43:00.790Z,80.79
2017-12-30T01:45:29.024Z,80.61
2017-12-30T01:47:58.047Z,80.66
2017-12-30T01:50:27.080Z,80.96
2017-12-30T01:52:55.631Z,81.01
2017-12-30T01:55:23.892Z,81.55
2017-12-30T01:57:52.150Z,81.75
2017-12-30T02:00:20.425Z,82.01
2017-12-30T02:02:48.688Z,82.53
2017-12-30T02:05:17.712Z,82.69
2017-12-30T02:07:45.962Z,83.15
2017-12-30T02:10:14.227Z,83.25
2017-12-30T02:12:42.497Z,83.72
2017-12-30T02:15:10.767Z,84.17
2017-12-30T02:17:39.782Z,85.32
2017-12-30T02:20:08.047Z,86.01
2017-12-30T02:22:37.059Z,85.97
2017-12-30T02:25:06.087Z,85.73
2017-12-30T02:27:34.335Z,86.18
2017-12-30T02:30:02.604Z,85.67
2017-12-30T02:32:30.844Z,85.77
2017-12-30T02:34:59.877Z,86.08
2017-12-30T02:37:28.127Z,86.79
2017-12-30T02:39:56.403Z,86.65
2017-12-30T02:42:24.656Z,86.31
2017-12-30T02:44:52.916Z,86.43
2017-12-30T02:47:21.182Z,86.63
2017-12-30T02:49:50.208Z,86.23
2017-12-30T02:52:19.229Z,85.87
2017-12-30T02:54:47.506Z,86.11
2017-12-30T02:57:15.746Z,85.97
2017-12-30T02:59:43.996Z,85.75
2017-12-30T03:02:12.272Z,86.22
2017-12-30T03:04:40.528Z,86.74
2017-12-30T03:07:08.791Z,86.79
2017-12-30T03:09:37.040Z,86.88
2017-12-30T03:12:05.304Z,86.85
2017-12-30T03:14:34.328Z,86.94
2017-12-30T03:17:02.607Z,87.43
2017-12-30T03:19:31.627Z,87.32
2017-12-30T03:21:59.922Z,87.37
2017-12-30T03:24:28.180Z,87.09
2017-12-30T03:26:57.222Z,87.21
2017-12-30T03:29:25.473Z,87.46
2017-12-30T03:31:53.758Z,87.50
2017-12-30T03:34:22.028Z,87.34
2017-12-30T03:36:50.321Z,87.05
2017-12-30T03:39:18.584Z,87.30
2017-12-30T03:41:46.859Z,86.86
2017-12-30T03:44:15.120Z,86.62
2017-12-30T03:46:44.148Z,87.24
2017-12-30T03:49:12.410Z,87.27
2017-12-30T03:51:41.439Z,86.73
2017-12-30T03:54:09.686Z,87.15
2017-12-30T03:56:37.943Z,86.62
2017-12-30T03:59:06.203Z,86.67
2017-12-30T04:01:35.236Z,86.70
2017-12-30T04:04:03.487Z,86.71
2017-12-30T04:06:32.517Z,86.63
2017-12-30T04:09:00.770Z,86.00
2017-12-30T04:11:29.040Z,86.23
2017-12-30T04:13:57.308Z,86.25
2017-12-30T04:16:25.972Z,86.67
2017-12-30T04:18:54.995Z,86.11
2017-12-30T04:21:23.256Z,86.03
2017-12-30T04:23:52.300Z,86.58
2017-12-30T04:26:20.587Z,86.77
2017-12-30T04:28:48.848Z,86.38
2017-12-30T04:31:17.119Z,85.82
2017-12-30T04:33:46.167Z,85.89
2017-12-30T04:36:14.433Z,85.77
2017-12-30T04:38:43.447Z,85.85
2017-12-30T04:41:12.476Z,85.73
2017-12-30T04:43:40.749Z,85.38
2017-12-30T04:46:09.031Z,85.65
2017-12-30T04:48:37.301Z,85.88
2017-12-30T04:51:06.339Z,86.06
2017-12-30T04:53:34.616Z,85.23
2017-12-30T04:56:02.867Z,85.54
2017-12-30T04:58:31.141Z,85.13
2017-12-30T05:00:59.476Z,85.32
2017-12-30T05:03:28.516Z,84.78
2017-12-30T05:05:56.793Z,84.42
2017-12-30T05:08:25.055Z,84.09
2017-12-30T05:10:54.076Z,84.01
2017-12-30T05:13:22.380Z,83.42
2017-12-30T05:15:50.639Z,83.40
2017-12-30T05:18:19.677Z,82.96
2017-12-30T05:20:47.947Z,83.35
2017-12-30T05:23:16.231Z,82.49
2017-12-30T05:25:45.239Z,82.47
2017-12-30T05:28:13.513Z,81.37
2017-12-30T05:30:42.538Z,81.30
2017-12-30T05:33:10.806Z,80.11
2017-12-30T05:35:39.818Z,80.05
2017-12-30T05:38:08.872Z,80.42
2017-12-30T05:40:37.117Z,80.57
2017-12-30T05:43:06.150Z,80.09
2017-12-30T05:45:34.399Z,79.50
2017-12-30T05:48:02.651Z,79.89
2017-12-30T05:50:31.691Z,80.23
2017-12-30T05:52:59.943Z,80.27
2017-12-30T05:55:28.219Z,80.05
2017-12-30T05:57:56.482Z,79.97
2017-12-30T06:00:24.761Z,79.94
2017-12-30T06:02:53.772Z,80.46
2017-12-30T06:05:22.031Z,80.35
2017-12-30T06:07:50.287Z,80.42
2017-12-30T06:10:18.587Z,80.89
2017-12-30T06:12:46.840Z,81.19
2017-12-30T06:15:15.086Z,81.68
2017-12-30T06:17:43.335Z,82.70
2017-12-30T06:20:11.595Z,82.33
2017-12-30T06:22:39.859Z,81.97
2017-12-30T06:25:08.907Z,82.76
2017-12-30T06:27:37.146Z,82.93
2017-12-30T06:30:05.419Z,83.04
2017-12-30T06:32:33.684Z,82.88
2017-12-30T06:35:01.959Z,83.77
2017-12-30T06:37:30.212Z,83.54
2017-12-30T06:39:58.501Z,84.24
2017-12-30T06:42:26.779Z,83.34
2017-12-30T06:44:55.059Z,83.74
2017-12-30T06:47:23.328Z,83.85
2017-12-30T06:49:51.603Z,84.70
2017-12-30T06:52:19.867Z,86.36
2017-12-30T06:54:48.892Z,86.57
2017-12-30T06:57:17.173Z,85.30
2017-12-30T06:59:46.199Z,85.18
2017-12-30T07:02:14.471Z,90.25
2017-12-30T07:04:42.909Z,85.72
2017-12-30T07:07:11.167Z,86.58
2017-12-30T07:09:39.436Z,86.38
2017-12-30T07:12:08.837Z,86.84
2017-12-30T07:14:37.880Z,86.76
2017-12-30T07:17:06.153Z,87.48
2017-12-30T07:19:34.409Z,87.33
2017-12-30T07:22:02.679Z,87.10
2017-12-30T07:24:30.935Z,88.19
2017-12-30T07:26:59.209Z,87.38
2017-12-30T07:29:28.857Z,87.54
2017-12-30T07:31:57.121Z,88.36
2017-12-30T07:34:25.375Z,87.95
2017-12-30T07:36:54.120Z,88.51
2017-12-30T07:39:22.471Z,88.35
2017-12-30T07:41:50.997Z,87.16
2017-12-30T07:44:21.851Z,88.19
2017-12-30T07:46:50.107Z,88.79
2017-12-30T07:49:18.775Z,89.40
2017-12-30T07:51:47.965Z,89.00
2017-12-30T07:54:16.914Z,89.47
2017-12-30T07:56:45.168Z,88.48
2017-12-30T07:59:13.432Z,91.26
2017-12-30T08:01:41.700Z,86.78
2017-12-30T08:04:10.715Z,78.35
2017-12-30T08:06:39.777Z,79.02
2017-12-30T08:09:08.007Z,83.26
2017-12-30T08:11:37.046Z,85.23
2017-12-30T08:14:05.275Z,86.27
2017-12-30T08:16:33.652Z,86.93
2017-12-30T08:19:02.062Z,86.39
2017-12-30T08:21:30.340Z,86.39
2017-12-30T08:23:58.595Z,86.85
2017-12-30T08:26:26.954Z,86.23
2017-12-30T08:28:56.109Z,86.27
2017-12-30T08:31:24.396Z,87.11
2017-12-30T08:33:52.648Z,86.75
2017-12-30T08:36:22.451Z,86.21
2017-12-30T08:38:50.687Z,86.74
2017-12-30T08:41:18.960Z,86.46
2017-12-30T08:43:48.065Z,85.44
2017-12-30T08:46:17.235Z,85.94
2017-12-30T08:48:45.527Z,86.25
2017-12-30T08:51:14.184Z,86.43
2017-12-30T08:53:42.570Z,85.75
2017-12-30T08:56:10.807Z,85.39
2017-12-30T08:58:39.085Z,85.30
2017-12-30T09:01:08.463Z,85.30
2017-12-30T09:03:36.735Z,85.71
2017-12-30T09:06:05.750Z,85.13
2017-12-30T09:08:34.454Z,84.83
2017-12-30T09:11:04.657Z,84.90
2017-12-30T09:13:33.136Z,84.60
2017-12-30T09:16:01.948Z,84.27
2017-12-30T09:18:31.627Z,84.42
2017-12-30T09:21:00.932Z,84.69
2017-12-30T09:23:29.244Z,83.86
2017-12-30T09:25:57.621Z,84.43
2017-12-30T09:28:26.524Z,84.19
2017-12-30T09:30:54.889Z,83.17
2017-12-30T09:33:24.895Z,90.66
2017-12-30T09:35:54.437Z,82.15
2017-12-30T09:38:23.880Z,82.66
2017-12-30T09:40:52.316Z,82.75
2017-12-30T09:43:21.177Z,83.10
2017-12-30T09:45:49.639Z,82.03
2017-12-30T09:48:19.509Z,82.32
2017-12-30T09:50:48.013Z,81.75
2017-12-30T09:53:16.767Z,81.48
2017-12-30T09:55:46.287Z,81.51
2017-12-30T09:58:15.689Z,80.78
2017-12-30T10:00:45.376Z,81.16
2017-12-30T10:03:13.895Z,82.01
2017-12-30T10:05:43.165Z,81.33
2017-12-30T10:08:12.159Z,81.25
2017-12-30T10:10:40.619Z,81.46
2017-12-30T10:13:10.648Z,82.06
2017-12-30T10:15:40.590Z,82.12
2017-12-30T10:18:11.162Z,82.15
2017-12-30T10:20:40.114Z,81.58
2017-12-30T10:23:08.543Z,81.59
2017-12-30T10:25:37.297Z,80.83
2017-12-30T10:28:06.278Z,80.97
2017-12-30T10:30:35.169Z,81.60
2017-12-30T10:33:04.150Z,81.85
2017-12-30T10:35:32.844Z,81.44
2017-12-30T10:38:01.624Z,80.90
2017-12-30T10:40:30.457Z,80.93
2017-12-30T10:42:59.332Z,79.60
2017-12-30T10:45:28.183Z,79.86
2017-12-30T10:47:56.801Z,79.96
2017-12-30T10:50:25.430Z,80.42
2017-12-30T10:52:54.153Z,79.29
2017-12-30T10:55:23.035Z,79.54
2017-12-30T10:57:52.694Z,79.15
2017-12-30T11:00:21.206Z,79.64
2017-12-30T11:02:49.781Z,79.68
2017-12-30T11:05:18.667Z,79.92
2017-12-30T11:07:47.807Z,80.03
2017-12-30T11:10:16.600Z,79.85
2017-12-30T11:12:45.180Z,80.64
2017-12-30T11:15:13.967Z,81.04
2017-12-30T11:17:43.957Z,80.38
2017-12-30T11:20:13.136Z,80.90
2017-12-30T11:22:42.028Z,81.14
2017-12-30T11:25:10.660Z,79.58
2017-12-30T11:27:39.144Z,79.46
2017-12-30T11:30:07.604Z,80.51
2017-12-30T11:32:36.259Z,80.12
2017-12-30T11:35:05.273Z,81.03
2017-12-30T11:37:34.279Z,80.21
2017-12-30T11:40:03.034Z,80.74
2017-12-30T11:42:31.918Z,80.94
2017-12-30T11:45:01.232Z,79.63
2017-12-30T11:47:30.543Z,80.38
2017-12-30T11:50:00.215Z,80.22
2017-12-30T11:52:28.925Z,80.25
2017-12-30T11:54:57.536Z,80.59
2017-12-30T11:57:26.368Z,80.67
2017-12-30T11:59:55.010Z,80.94
2017-12-30T12:02:23.573Z,81.33
2017-12-30T12:04:52.162Z,80.99
2017-12-30T12:07:21.881Z,79.94
2017-12-30T12:09:50.622Z,80.34
2017-12-30T12:12:19.303Z,80.09
2017-12-30T12:14:48.086Z,80.52
2017-12-30T12:17:16.836Z,80.70
2017-12-30T12:19:45.644Z,80.35
2017-12-30T12:22:14.124Z,80.51
2017-12-30T12:24:42.833Z,80.04
2017-12-30T12:27:11.685Z,80.54
2017-12-30T12:29:40.186Z,79.96
2017-12-30T12:32:09.105Z,80.05
2017-12-30T12:34:37.677Z,79.30
2017-12-30T12:37:06.667Z,79.44
2017-12-30T12:39:36.220Z,79.63
2017-12-30T12:42:04.879Z,80.18
2017-12-30T12:44:34.086Z,81.44
2017-12-30T12:47:03.738Z,81.61
2017-12-30T12:49:32.745Z,82.24
2017-12-30T12:52:01.810Z,82.33
2017-12-30T12:54:30.732Z,82.40
2017-12-30T12:57:00.968Z,82.52
2017-12-30T12:59:31.762Z,82.16
2017-12-30T13:02:00.043Z,81.20
2017-12-30T13:04:28.745Z,80.94
2017-12-30T13:06:57.114Z,80.87
2017-12-30T13:09:25.875Z,79.95
2017-12-30T13:11:54.272Z,79.71
2017-12-30T13:14:22.572Z,79.87
2017-12-30T13:16:51.720Z,79.15
2017-12-30T13:19:20.019Z,78.75
2017-12-30T13:21:48.305Z,78.58
2017-12-30T13:24:17.694Z,78.89
2017-12-30T13:26:47.222Z,78.45
2017-12-30T13:29:15.771Z,78.26
2017-12-30T13:31:44.160Z,78.43
2017-12-30T13:34:12.692Z,78.46
2017-12-30T13:36:42.113Z,77.75
2017-12-30T13:39:10.844Z,77.59
2017-12-30T13:41:39.319Z,77.77
2017-12-30T13:44:07.734Z,77.33
2017-12-30T13:46:36.294Z,77.77
2017-12-30T13:49:04.728Z,77.64
2017-12-30T13:51:33.312Z,78.12
2017-12-30T13:54:01.750Z,78.97
2017-12-30T13:56:31.021Z,78.53
2017-12-30T13:58:59.386Z,78.38
2017-12-30T14:01:27.788Z,78.33
2017-12-30T14:03:56.235Z,77.92
2017-12-30T14:06:25.461Z,78.11
2017-12-30T14:08:54.942Z,78.22
2017-12-30T14:11:23.590Z,78.09
2017-12-30T14:13:52.148Z,78.79
2017-12-30T14:16:20.713Z,78.84
2017-12-30T14:18:49.310Z,78.98
2017-12-30T14:21:17.896Z,79.18
2017-12-30T14:23:46.549Z,79.46
2017-12-30T14:26:15.300Z,79.36
2017-12-30T14:28:43.781Z,80.12
2017-12-30T14:31:12.549Z,80.34
2017-12-30T14:33:41.867Z,80.27
2017-12-30T14:36:11.169Z,80.33
2017-12-30T14:38:39.931Z,79.54
2017-12-30T14:41:08.328Z,79.69
2017-12-30T14:43:37.213Z,79.73
2017-12-30T14:46:06.002Z,79.43
2017-12-30T14:48:34.575Z,80.93
2017-12-30T14:51:03.768Z,82.14
2017-12-30T14:53:32.201Z,82.87
2017-12-30T14:58:35.056Z,82.36
2017-12-30T15:01:03.331Z,81.48
2017-12-30T15:03:31.600Z,80.67
2017-12-30T15:06:00.610Z,81.32
2017-12-30T15:08:29.186Z,80.96
2017-12-30T15:10:58.645Z,80.97
2017-12-30T15:13:27.936Z,79.58
2017-12-30T15:15:56.259Z,78.82
2017-12-30T15:18:25.261Z,78.18
2017-12-30T15:20:53.851Z,77.64
2017-12-30T15:23:23.324Z,77.22
2017-12-30T15:25:51.695Z,77.54
2017-12-30T15:28:20.438Z,77.02
2017-12-30T15:30:49.045Z,76.70
2017-12-30T15:33:17.405Z,76.49
2017-12-30T15:35:47.890Z,76.92
2017-12-30T15:38:16.793Z,76.58
2017-12-30T15:40:45.296Z,76.09
2017-12-30T15:43:13.690Z,76.24
2017-12-30T15:45:42.850Z,76.25
2017-12-30T15:48:12.065Z,76.30
2017-12-30T15:50:41.174Z,76.27
2017-12-30T15:53:10.221Z,76.49
2017-12-30T15:55:38.661Z,76.87
2017-12-30T15:58:07.088Z,76.35
2017-12-30T16:00:36.641Z,75.85
2017-12-30T16:03:04.980Z,76.68
2017-12-30T16:05:34.456Z,77.30
2017-12-30T16:08:02.767Z,77.54
2017-12-30T16:10:31.434Z,77.55
2017-12-30T16:12:59.876Z,77.85
2017-12-30T16:15:28.661Z,78.01
2017-12-30T16:17:57.516Z,77.47
2017-12-30T16:20:27.295Z,77.68
2017-12-30T16:22:55.624Z,77.93
2017-12-30T16:25:23.950Z,77.64
2017-12-30T16:27:52.993Z,77.97
2017-12-30T16:30:22.438Z,78.10
2017-12-30T16:32:50.724Z,77.20
2017-12-30T16:35:19.000Z,77.06
2017-12-30T16:37:48.475Z,76.58
2017-12-30T16:40:16.733Z,76.12
2017-12-30T16:42:45.029Z,75.42
2017-12-30T16:45:13.371Z,75.11
2017-12-30T16:47:42.416Z,74.78
2017-12-30T16:50:10.696Z,74.33
2017-12-30T16:52:38.960Z,73.50
2017-12-30T16:55:08.100Z,73.27
2017-12-30T16:57:36.399Z,72.79
2017-12-30T17:00:04.735Z,72.68
2017-12-30T17:02:33.040Z,73.64
2017-12-30T17:05:02.095Z,72.75
2017-12-30T17:07:30.357Z,72.56
2017-12-30T17:09:59.416Z,72.16
2017-12-30T17:12:27.762Z,72.10
2017-12-30T17:14:56.057Z,72.09
2017-12-30T17:17:24.321Z,72.04
2017-12-30T17:19:53.347Z,72.16
2017-12-30T17:22:21.611Z,71.72
2017-12-30T17:24:50.664Z,71.92
2017-12-30T17:27:18.932Z,71.59
2017-12-30T17:29:47.274Z,71.63
2017-12-30T17:32:15.553Z,72.41
2017-12-30T17:34:43.897Z,72.80
2017-12-30T17:37:13.929Z,72.97
2017-12-30T17:39:42.207Z,73.74
2017-12-30T17:42:10.557Z,73.54
2017-12-30T17:44:38.849Z,73.67
2017-12-30T17:47:07.176Z,73.71
2017-12-30T17:49:36.215Z,74.07
2017-12-30T17:52:05.643Z,74.25
2017-12-30T17:54:33.992Z,74.22
2017-12-30T17:57:03.067Z,74.65
2017-12-30T17:59:32.123Z,74.87
2017-12-30T18:02:00.426Z,75.23
2017-12-30T18:04:28.725Z,75.35
2017-12-30T18:06:57.047Z,75.79
2017-12-30T18:09:25.342Z,76.60
2017-12-30T18:11:53.653Z,76.27
2017-12-30T18:14:22.718Z,77.04
2017-12-30T18:16:51.100Z,77.68
2017-12-30T18:19:19.400Z,78.04
2017-12-30T18:21:47.769Z,78.22
2017-12-30T18:24:16.096Z,78.60
2017-12-30T18:26:44.435Z,79.02
2017-12-30T18:29:12.705Z,79.57
2017-12-30T18:31:41.754Z,79.18
2017-12-30T18:34:10.063Z,80.03
2017-12-30T18:36:38.391Z,80.37
2017-12-30T18:39:07.451Z,81.00
2017-12-30T18:41:35.780Z,80.70
2017-12-30T18:44:04.086Z,80.96
2017-12-30T18:46:33.179Z,81.02
2017-12-30T18:49:01.506Z,81.99
2017-12-30T18:51:29.893Z,82.48
2017-12-30T18:53:58.224Z,82.90
2017-12-30T18:56:26.565Z,82.99
2017-12-30T18:58:54.878Z,83.34
2017-12-30T19:01:23.255Z,83.86
2017-12-30T19:03:51.570Z,84.44
2017-12-30T19:06:19.894Z,84.66
2017-12-30T19:08:48.156Z,85.13
2017-12-30T19:11:16.478Z,85.21
2017-12-30T19:13:44.788Z,85.69
2017-12-30T19:16:13.906Z,85.78
2017-12-30T19:18:43.019Z,85.58
2017-12-30T19:21:12.115Z,86.08
2017-12-30T19:23:40.454Z,86.18
2017-12-30T19:26:08.760Z,86.14
2017-12-30T19:28:37.076Z,86.32
2017-12-30T19:31:06.166Z,86.21
2017-12-30T19:33:34.489Z,86.25
2017-12-30T19:36:02.815Z,86.52
2017-12-30T19:38:31.152Z,87.03
2017-12-30T19:40:59.464Z,88.00
2017-12-30T19:43:27.792Z,88.57
2017-12-30T19:45:56.096Z,88.70
2017-12-30T19:48:24.483Z,89.32
2017-12-30T19:50:52.807Z,89.72
2017-12-30T19:53:21.131Z,90.25
2017-12-30T19:55:50.223Z,90.34
2017-12-30T19:58:18.548Z,90.61
2017-12-30T20:00:46.870Z,90.68
2017-12-30T20:03:15.199Z,90.91
2017-12-30T20:05:44.267Z,91.00
2017-12-30T20:08:12.604Z,90.88
2017-12-30T20:10:40.940Z,90.99
2017-12-30T20:13:09.264Z,91.00
2017-12-30T20:15:37.571Z,91.50
2017-12-30T20:18:06.674Z,91.34
2017-12-30T20:20:35.762Z,91.65
2017-12-30T20:23:04.103Z,92.00
2017-12-30T20:25:32.409Z,92.32
2017-12-30T20:28:00.733Z,92.18
2017-12-30T20:30:29.037Z,92.11
2017-12-30T20:32:58.137Z,92.89
2017-12-30T20:35:26.434Z,93.15
2017-12-30T20:37:54.765Z,93.15
2017-12-30T20:40:23.140Z,92.96
2017-12-30T20:42:51.453Z,92.56
2017-12-30T20:45:19.768Z,92.93
2017-12-30T20:47:48.086Z,92.22
2017-12-30T20:50:16.491Z,92.59
2017-12-30T20:52:45.562Z,92.75
2017-12-30T20:55:13.907Z,92.45
2017-12-30T20:57:42.226Z,93.13
2017-12-30T21:00:10.551Z,92.82
2017-12-30T21:02:39.647Z,93.07
2017-12-30T21:05:09.470Z,92.75
2017-12-30T21:07:37.851Z,92.66
2017-12-30T21:10:06.948Z,92.38
2017-12-30T21:12:35.262Z,92.33
2017-12-30T21:15:03.599Z,92.48
2017-12-30T21:17:31.920Z,92.68
2017-12-30T21:20:00.253Z,92.54
2017-12-30T21:22:29.341Z,92.85
2017-12-30T21:24:57.656Z,92.93
2017-12-30T21:27:26.727Z,92.62
2017-12-30T21:29:55.083Z,92.84
2017-12-30T21:32:23.410Z,93.00
2017-12-30T21:34:51.731Z,93.14
2017-12-30T21:37:21.009Z,93.15
2017-12-30T21:39:49.335Z,92.41
2017-12-30T21:42:18.455Z,92.54
2017-12-30T21:44:49.491Z,93.00
2017-12-30T21:47:18.591Z,92.66
2017-12-30T21:49:47.687Z,92.53
2017-12-30T21:52:16.006Z,92.50
2017-12-30T21:54:45.319Z,92.15
2017-12-30T21:57:13.628Z,92.33
2017-12-30T21:59:42.742Z,92.50
2017-12-30T22:02:11.089Z,92.23
2017-12-30T22:04:39.412Z,91.70
2017-12-30T22:07:08.478Z,91.22
2017-12-30T22:09:36.812Z,91.26
2017-12-30T22:12:05.884Z,91.46
2017-12-30T22:14:34.234Z,91.31
2017-12-30T22:17:02.576Z,91.74
2017-12-30T22:19:30.884Z,91.48
2017-12-30T22:21:59.962Z,91.13
2017-12-30T22:24:28.261Z,91.23
2017-12-30T22:26:56.578Z,91.57
2017-12-30T22:29:25.626Z,91.29
2017-12-30T22:31:53.971Z,91.00
2017-12-30T22:34:23.073Z,91.10
2017-12-30T22:36:51.405Z,90.71
2017-12-30T22:39:19.752Z,90.49
2017-12-30T22:41:48.075Z,90.33
2017-12-30T22:44:16.386Z,90.10
2017-12-30T22:46:44.722Z,90.17
2017-12-30T22:49:14.022Z,89.67
2017-12-30T22:51:42.373Z,89.44
2017-12-30T22:54:10.688Z,89.37
2017-12-30T22:56:39.017Z,88.44
2017-12-30T22:59:08.679Z,88.30
2017-12-30T23:01:37.010Z,88.03
2017-12-30T23:04:06.318Z,87.81
2017-12-30T23:06:34.656Z,87.44
2017-12-30T23:09:02.961Z,87.45
2017-12-30T23:11:31.276Z,87.42
2017-12-30T23:13:59.583Z,87.12
2017-12-30T23:16:27.928Z,87.52
2017-12-30T23:18:56.243Z,87.99
2017-12-30T23:21:24.572Z,87.73
2017-12-30T23:23:53.646Z,87.78
2017-12-30T23:26:21.980Z,88.23
2017-12-30T23:28:51.073Z,88.55
2017-12-30T23:31:19.389Z,88.61
2017-12-30T23:33:47.698Z,88.26
2017-12-30T23:36:16.020Z,88.20
2017-12-30T23:38:44.334Z,87.80
2017-12-30T23:41:12.661Z,87.76
2017-12-30T23:43:41.028Z,88.18
2017-12-30T23:46:10.108Z,88.10
2017-12-30T23:48:38.438Z,88.01
2017-12-30T23:51:06.758Z,87.55
2017-12-30T23:53:35.088Z,87.70
2017-12-30T23:56:03.412Z,86.78
2017-12-30T23:58:31.754Z,86.60
